sensor_id;sensor_type;location;lat;lon;timestamp;pressure;altitude;pressure_sealevel;temperature;humidity
14253;BME280;7210;51.502;10.722;2023-02-04T00:01:40;100756.84;;;5.23;100.00
14253;BME280;7210;51.502;10.722;2023-02-04T00:04:07;100762.78;;;5.25;100.00
14253;BME280;7210;51.502;10.722;2023-02-04T00:06:36;100766.69;;;5.21;100.00
14253;BME280;7210;51.502;10.722;2023-02-04T00:09:04;100791.91;;;5.22;100.00
14253;BME280;7210;51.502;10.722;2023-02-04T00:11:31;100784.53;;;5.17;100.00
14253;BME280;7210;51.502;10.722;2023-02-04T00:13:58;100780.78;;;5.12;100.00
14253;BME280;7210;51.502;10.722;2023-02-04T00:16:26;100779.47;;;5.08;100.00
14253;BME280;7210;51.502;10.722;2023-02-04T00:18:53;100785.69;;;5.07;100.00
14253;BME280;7210;51.502;10.722;2023-02-04T00:21:21;100783.72;;;5.01;100.00
14253;BME280;7210;51.502;10.722;2023-02-04T00:23:50;100790.91;;;4.99;100.00
14253;BME280;7210;51.502;10.722;2023-02-04T00:26:17;100795.50;;;4.97;100.00
14253;BME280;7210;51.502;10.722;2023-02-04T00:28:45;100791.75;;;4.99;100.00
14253;BME280;7210;51.502;10.722;2023-02-04T00:31:13;100773.25;;;5.01;100.00
14253;BME280;7210;51.502;10.722;2023-02-04T00:33:41;100747.53;;;4.96;100.00
14253;BME280;7210;51.502;10.722;2023-02-04T00:36:09;100732.78;;;4.95;100.00
14253;BME280;7210;51.502;10.722;2023-02-04T00:38:36;100723.47;;;5.01;100.00
14253;BME280;7210;51.502;10.722;2023-02-04T00:41:04;100708.03;;;5.06;100.00
14253;BME280;7210;51.502;10.722;2023-02-04T00:43:32;100687.06;;;5.06;100.00
14253;BME280;7210;51.502;10.722;2023-02-04T00:45:59;100673.97;;;4.98;99.57
14253;BME280;7210;51.502;10.722;2023-02-04T00:48:27;100662.53;;;4.91;98.75
14253;BME280;7210;51.502;10.722;2023-02-04T00:50:55;100657.97;;;4.93;98.22
14253;BME280;7210;51.502;10.722;2023-02-04T00:53:22;100663.19;;;5.01;97.96
14253;BME280;7210;51.502;10.722;2023-02-04T00:55:49;100650.56;;;5.12;96.68
14253;BME280;7210;51.502;10.722;2023-02-04T00:58:18;100637.25;;;5.22;95.82
14253;BME280;7210;51.502;10.722;2023-02-04T01:00:46;100641.03;;;5.35;94.46
14253;BME280;7210;51.502;10.722;2023-02-04T01:03:13;100609.59;;;5.27;93.94
14253;BME280;7210;51.502;10.722;2023-02-04T01:05:40;100598.31;;;5.11;93.55
14253;BME280;7210;51.502;10.722;2023-02-04T01:08:07;100600.97;;;4.95;93.66
14253;BME280;7210;51.502;10.722;2023-02-04T01:10:34;100619.16;;;4.96;93.31
14253;BME280;7210;51.502;10.722;2023-02-04T01:13:01;100622.06;;;4.93;93.61
14253;BME280;7210;51.502;10.722;2023-02-04T01:15:30;100641.06;;;4.95;93.38
14253;BME280;7210;51.502;10.722;2023-02-04T01:18:00;100642.88;;;4.95;93.48
14253;BME280;7210;51.502;10.722;2023-02-04T01:20:29;100652.03;;;4.99;93.21
14253;BME280;7210;51.502;10.722;2023-02-04T01:22:56;100667.59;;;5.00;93.35
14253;BME280;7210;51.502;10.722;2023-02-04T01:25:42;100675.81;;;5.05;92.98
14253;BME280;7210;51.502;10.722;2023-02-04T01:28:10;100676.59;;;4.98;93.23
14253;BME280;7210;51.502;10.722;2023-02-04T01:30:39;100686.09;;;4.91;93.22
14253;BME280;7210;51.502;10.722;2023-02-04T01:33:07;100691.03;;;4.86;93.26
14253;BME280;7210;51.502;10.722;2023-02-04T01:35:36;100715.59;;;5.01;93.05
14253;BME280;7210;51.502;10.722;2023-02-04T01:38:04;100729.50;;;5.09;92.85
14253;BME280;7210;51.502;10.722;2023-02-04T01:40:33;100746.72;;;5.04;93.08
14253;BME280;7210;51.502;10.722;2023-02-04T01:43:01;100760.63;;;4.96;93.56
14253;BME280;7210;51.502;10.722;2023-02-04T01:45:29;100776.97;;;4.82;94.41
14253;BME280;7210;51.502;10.722;2023-02-04T01:48:02;100803.59;;;4.54;94.99
14253;BME280;7210;51.502;10.722;2023-02-04T01:50:30;100812.28;;;4.29;95.66
14253;BME280;7210;51.502;10.722;2023-02-04T01:52:59;100829.03;;;4.10;96.40
14253;BME280;7210;51.502;10.722;2023-02-04T01:55:30;100842.72;;;3.96;97.13
14253;BME280;7210;51.502;10.722;2023-02-04T01:57:59;100870.28;;;3.91;97.81
14253;BME280;7210;51.502;10.722;2023-02-04T02:00:31;100876.44;;;3.82;98.27
14253;BME280;7210;51.502;10.722;2023-02-04T02:03:01;100893.25;;;3.79;98.60
14253;BME280;7210;51.502;10.722;2023-02-04T02:05:36;100897.97;;;3.76;98.97
14253;BME280;7210;51.502;10.722;2023-02-04T02:08:06;100905.75;;;3.68;99.22
14253;BME280;7210;51.502;10.722;2023-02-04T02:10:39;100924.06;;;3.68;99.30
14253;BME280;7210;51.502;10.722;2023-02-04T02:13:10;100922.69;;;3.64;99.55
14253;BME280;7210;51.502;10.722;2023-02-04T02:15:38;100939.63;;;3.60;99.57
14253;BME280;7210;51.502;10.722;2023-02-04T02:18:08;100938.91;;;3.50;99.89
14253;BME280;7210;51.502;10.722;2023-02-04T02:20:36;100952.06;;;3.58;100.00
14253;BME280;7210;51.502;10.722;2023-02-04T02:23:13;100960.88;;;3.57;100.00
14253;BME280;7210;51.502;10.722;2023-02-04T02:25:46;100957.28;;;3.58;100.00
14253;BME280;7210;51.502;10.722;2023-02-04T02:28:19;100963.09;;;3.52;100.00
14253;BME280;7210;51.502;10.722;2023-02-04T02:30:47;100967.97;;;3.47;100.00
14253;BME280;7210;51.502;10.722;2023-02-04T02:33:18;100975.13;;;3.45;100.00
14253;BME280;7210;51.502;10.722;2023-02-04T02:35:47;100981.31;;;3.44;100.00
14253;BME280;7210;51.502;10.722;2023-02-04T02:38:15;100982.44;;;3.42;100.00
14253;BME280;7210;51.502;10.722;2023-02-04T02:40:45;100981.75;;;3.40;100.00
14253;BME280;7210;51.502;10.722;2023-02-04T02:43:15;100989.75;;;3.38;100.00
14253;BME280;7210;51.502;10.722;2023-02-04T02:45:43;100994.28;;;3.36;100.00
14253;BME280;7210;51.502;10.722;2023-02-04T02:48:11;100985.69;;;3.26;100.00
14253;BME280;7210;51.502;10.722;2023-02-04T02:50:40;100994.88;;;3.30;100.00
14253;BME280;7210;51.502;10.722;2023-02-04T02:53:10;100990.91;;;3.26;100.00
14253;BME280;7210;51.502;10.722;2023-02-04T02:55:41;100992.47;;;3.19;100.00
14253;BME280;7210;51.502;10.722;2023-02-04T02:58:16;101005.16;;;3.14;100.00
14253;BME280;7210;51.502;10.722;2023-02-04T03:00:44;101018.59;;;3.19;100.00
14253;BME280;7210;51.502;10.722;2023-02-04T03:03:18;101030.69;;;3.20;100.00
14253;BME280;7210;51.502;10.722;2023-02-04T03:05:52;101036.44;;;3.24;100.00
14253;BME280;7210;51.502;10.722;2023-02-04T03:08:21;101034.94;;;3.21;100.00
14253;BME280;7210;51.502;10.722;2023-02-04T03:13:47;101047.22;;;3.11;100.00
14253;BME280;7210;51.502;10.722;2023-02-04T03:16:17;101075.94;;;3.21;100.00
14253;BME280;7210;51.502;10.722;2023-02-04T03:18:44;101084.31;;;3.24;100.00
14253;BME280;7210;51.502;10.722;2023-02-04T03:21:12;101106.56;;;3.28;100.00
14253;BME280;7210;51.502;10.722;2023-02-04T03:23:39;101115.09;;;3.30;100.00
14253;BME280;7210;51.502;10.722;2023-02-04T03:26:06;101120.03;;;3.33;100.00
14253;BME280;7210;51.502;10.722;2023-02-04T03:28:38;101128.84;;;3.32;100.00
14253;BME280;7210;51.502;10.722;2023-02-04T03:31:08;101115.38;;;3.27;100.00
14253;BME280;7210;51.502;10.722;2023-02-04T03:33:36;101122.53;;;3.25;100.00
14253;BME280;7210;51.502;10.722;2023-02-04T03:36:03;101119.50;;;3.20;100.00
14253;BME280;7210;51.502;10.722;2023-02-04T03:38:31;101126.25;;;3.13;100.00
14253;BME280;7210;51.502;10.722;2023-02-04T03:40:59;101129.16;;;3.10;100.00
14253;BME280;7210;51.502;10.722;2023-02-04T03:43:26;101120.94;;;3.05;100.00
14253;BME280;7210;51.502;10.722;2023-02-04T03:45:53;101108.59;;;2.98;100.00
14253;BME280;7210;51.502;10.722;2023-02-04T03:48:22;101112.97;;;2.97;100.00
14253;BME280;7210;51.502;10.722;2023-02-04T03:50:49;101092.94;;;2.88;100.00
14253;BME280;7210;51.502;10.722;2023-02-04T03:53:27;101102.56;;;2.78;100.00
14253;BME280;7210;51.502;10.722;2023-02-04T03:55:55;101100.38;;;2.74;100.00
14253;BME280;7210;51.502;10.722;2023-02-04T03:58:22;101092.97;;;2.69;100.00
14253;BME280;7210;51.502;10.722;2023-02-04T04:00:50;101105.91;;;2.61;100.00
14253;BME280;7210;51.502;10.722;2023-02-04T04:03:17;101102.19;;;2.54;100.00
14253;BME280;7210;51.502;10.722;2023-02-04T04:05:47;101097.09;;;2.43;100.00
14253;BME280;7210;51.502;10.722;2023-02-04T04:08:14;101093.94;;;2.30;100.00
14253;BME280;7210;51.502;10.722;2023-02-04T04:10:45;101107.13;;;2.29;100.00
14253;BME280;7210;51.502;10.722;2023-02-04T04:13:13;101124.31;;;2.31;100.00
14253;BME280;7210;51.502;10.722;2023-02-04T04:15:40;101129.78;;;2.28;100.00
14253;BME280;7210;51.502;10.722;2023-02-04T04:18:07;101138.84;;;2.24;100.00
14253;BME280;7210;51.502;10.722;2023-02-04T04:20:34;101141.84;;;2.20;100.00
14253;BME280;7210;51.502;10.722;2023-02-04T04:23:03;101141.97;;;2.09;100.00
14253;BME280;7210;51.502;10.722;2023-02-04T04:25:30;101146.22;;;2.00;100.00
14253;BME280;7210;51.502;10.722;2023-02-04T04:27:57;101158.81;;;1.95;100.00
14253;BME280;7210;51.502;10.722;2023-02-04T04:30:24;101173.09;;;1.91;100.00
14253;BME280;7210;51.502;10.722;2023-02-04T04:32:51;101178.84;;;1.85;100.00
14253;BME280;7210;51.502;10.722;2023-02-04T04:35:19;101184.44;;;1.81;100.00
14253;BME280;7210;51.502;10.722;2023-02-04T04:37:46;101190.88;;;1.77;100.00
14253;BME280;7210;51.502;10.722;2023-02-04T04:40:14;101205.41;;;1.79;100.00
14253;BME280;7210;51.502;10.722;2023-02-04T04:42:42;101227.13;;;1.89;100.00
14253;BME280;7210;51.502;10.722;2023-02-04T04:45:10;101235.13;;;1.97;100.00
14253;BME280;7210;51.502;10.722;2023-02-04T04:47:37;101243.13;;;2.05;100.00
14253;BME280;7210;51.502;10.722;2023-02-04T04:50:05;101252.78;;;2.14;100.00
14253;BME280;7210;51.502;10.722;2023-02-04T04:52:32;101256.75;;;2.18;100.00
14253;BME280;7210;51.502;10.722;2023-02-04T04:55:00;101268.31;;;2.25;100.00
14253;BME280;7210;51.502;10.722;2023-02-04T04:57:29;101269.84;;;2.28;100.00
14253;BME280;7210;51.502;10.722;2023-02-04T04:59:56;101277.16;;;2.34;100.00
14253;BME280;7210;51.502;10.722;2023-02-04T05:02:23;101282.13;;;2.46;100.00
14253;BME280;7210;51.502;10.722;2023-02-04T05:04:51;101265.38;;;2.49;100.00
14253;BME280;7210;51.502;10.722;2023-02-04T05:07:19;101260.00;;;2.50;100.00
14253;BME280;7210;51.502;10.722;2023-02-04T05:09:56;101263.34;;;2.52;100.00
14253;BME280;7210;51.502;10.722;2023-02-04T05:12:23;101256.44;;;2.51;100.00
14253;BME280;7210;51.502;10.722;2023-02-04T05:14:51;101251.50;;;2.48;100.00
14253;BME280;7210;51.502;10.722;2023-02-04T05:17:18;101259.19;;;2.50;100.00
14253;BME280;7210;51.502;10.722;2023-02-04T05:19:46;101247.38;;;2.46;100.00
14253;BME280;7210;51.502;10.722;2023-02-04T05:22:13;101247.34;;;2.36;100.00
14253;BME280;7210;51.502;10.722;2023-02-04T05:24:40;101235.81;;;2.29;100.00
14253;BME280;7210;51.502;10.722;2023-02-04T05:27:07;101240.16;;;2.19;100.00
14253;BME280;7210;51.502;10.722;2023-02-04T05:29:34;101242.75;;;2.10;100.00
14253;BME280;7210;51.502;10.722;2023-02-04T05:32:03;101249.13;;;1.96;100.00
14253;BME280;7210;51.502;10.722;2023-02-04T05:34:30;101250.19;;;1.84;100.00
14253;BME280;7210;51.502;10.722;2023-02-04T05:36:57;101256.19;;;1.75;100.00
14253;BME280;7210;51.502;10.722;2023-02-04T05:39:25;101262.47;;;1.73;100.00
14253;BME280;7210;51.502;10.722;2023-02-04T05:41:52;101270.69;;;1.68;100.00
14253;BME280;7210;51.502;10.722;2023-02-04T05:44:19;101289.16;;;1.65;100.00
14253;BME280;7210;51.502;10.722;2023-02-04T05:46:46;101299.16;;;1.60;100.00
14253;BME280;7210;51.502;10.722;2023-02-04T05:49:14;101296.59;;;1.49;100.00
14253;BME280;7210;51.502;10.722;2023-02-04T05:51:42;101296.56;;;1.40;100.00
14253;BME280;7210;51.502;10.722;2023-02-04T05:54:09;101306.53;;;1.35;100.00
14253;BME280;7210;51.502;10.722;2023-02-04T05:56:36;101316.63;;;1.28;100.00
14253;BME280;7210;51.502;10.722;2023-02-04T05:59:03;101319.47;;;1.25;100.00
14253;BME280;7210;51.502;10.722;2023-02-04T06:01:30;101326.59;;;1.23;100.00
14253;BME280;7210;51.502;10.722;2023-02-04T06:03:57;101345.50;;;1.25;100.00
14253;BME280;7210;51.502;10.722;2023-02-04T06:06:26;101351.06;;;1.32;100.00
14253;BME280;7210;51.502;10.722;2023-02-04T06:08:53;101361.81;;;1.38;100.00
14253;BME280;7210;51.502;10.722;2023-02-04T06:11:20;101377.53;;;1.48;100.00
14253;BME280;7210;51.502;10.722;2023-02-04T06:13:49;101377.66;;;1.46;100.00
14253;BME280;7210;51.502;10.722;2023-02-04T06:16:21;101380.25;;;1.46;100.00
14253;BME280;7210;51.502;10.722;2023-02-04T06:18:49;101385.47;;;1.46;100.00
14253;BME280;7210;51.502;10.722;2023-02-04T06:21:16;101394.09;;;1.47;100.00
14253;BME280;7210;51.502;10.722;2023-02-04T06:23:45;101379.59;;;1.33;100.00
14253;BME280;7210;51.502;10.722;2023-02-04T06:26:12;101384.31;;;1.39;100.00
14253;BME280;7210;51.502;10.722;2023-02-04T06:28:39;101399.94;;;1.39;100.00
14253;BME280;7210;51.502;10.722;2023-02-04T06:31:07;101366.16;;;1.17;100.00
14253;BME280;7210;51.502;10.722;2023-02-04T06:33:35;101423.91;;;1.54;100.00
14253;BME280;7210;51.502;10.722;2023-02-04T06:36:02;101429.81;;;1.67;100.00
14253;BME280;7210;51.502;10.722;2023-02-04T06:38:30;101420.59;;;1.63;100.00
14253;BME280;7210;51.502;10.722;2023-02-04T06:40:58;101419.06;;;1.60;100.00
14253;BME280;7210;51.502;10.722;2023-02-04T06:43:25;101420.22;;;1.67;100.00
14253;BME280;7210;51.502;10.722;2023-02-04T06:45:53;101418.78;;;1.63;100.00
14253;BME280;7210;51.502;10.722;2023-02-04T06:48:20;101406.72;;;1.62;100.00
14253;BME280;7210;51.502;10.722;2023-02-04T06:50:50;101411.66;;;1.65;100.00
14253;BME280;7210;51.502;10.722;2023-02-04T06:53:17;101414.28;;;1.65;100.00
14253;BME280;7210;51.502;10.722;2023-02-04T06:55:44;101425.16;;;1.70;100.00
14253;BME280;7210;51.502;10.722;2023-02-04T06:58:13;101425.75;;;1.74;100.00
14253;BME280;7210;51.502;10.722;2023-02-04T07:00:40;101415.81;;;1.68;100.00
14253;BME280;7210;51.502;10.722;2023-02-04T07:03:17;101426.81;;;1.71;100.00
14253;BME280;7210;51.502;10.722;2023-02-04T07:05:48;101415.81;;;1.68;100.00
14253;BME280;7210;51.502;10.722;2023-02-04T07:08:15;101428.84;;;1.68;100.00
14253;BME280;7210;51.502;10.722;2023-02-04T07:10:43;101431.72;;;1.65;100.00
14253;BME280;7210;51.502;10.722;2023-02-04T07:13:10;101407.69;;;1.50;100.00
14253;BME280;7210;51.502;10.722;2023-02-04T07:15:39;101436.84;;;1.55;100.00
14253;BME280;7210;51.502;10.722;2023-02-04T07:18:06;101443.69;;;1.56;100.00
14253;BME280;7210;51.502;10.722;2023-02-04T07:20:33;101457.19;;;1.61;100.00
14253;BME280;7210;51.502;10.722;2023-02-04T07:23:00;101464.75;;;1.64;100.00
14253;BME280;7210;51.502;10.722;2023-02-04T07:25:28;101468.78;;;1.68;100.00
14253;BME280;7210;51.502;10.722;2023-02-04T07:27:55;101475.38;;;1.72;100.00
14253;BME280;7210;51.502;10.722;2023-02-04T07:30:24;101476.06;;;1.85;100.00
14253;BME280;7210;51.502;10.722;2023-02-04T07:32:52;101485.25;;;2.00;100.00
14253;BME280;7210;51.502;10.722;2023-02-04T07:35:44;101473.47;;;2.06;100.00
14253;BME280;7210;51.502;10.722;2023-02-04T07:38:11;101470.47;;;2.10;100.00
14253;BME280;7210;51.502;10.722;2023-02-04T07:40:38;101472.72;;;2.15;100.00
14253;BME280;7210;51.502;10.722;2023-02-04T07:43:05;101465.06;;;2.23;100.00
14253;BME280;7210;51.502;10.722;2023-02-04T07:45:33;101452.88;;;2.23;100.00
14253;BME280;7210;51.502;10.722;2023-02-04T07:48:02;101444.53;;;2.29;100.00
14253;BME280;7210;51.502;10.722;2023-02-04T07:50:30;101445.09;;;2.33;100.00
14253;BME280;7210;51.502;10.722;2023-02-04T07:52:57;101434.13;;;2.39;100.00
14253;BME280;7210;51.502;10.722;2023-02-04T07:55:24;101436.63;;;2.40;100.00
14253;BME280;7210;51.502;10.722;2023-02-04T07:57:51;101423.88;;;2.47;100.00
14253;BME280;7210;51.502;10.722;2023-02-04T08:00:19;101415.22;;;2.46;99.63
14253;BME280;7210;51.502;10.722;2023-02-04T08:02:46;101415.22;;;2.46;99.26
14253;BME280;7210;51.502;10.722;2023-02-04T08:05:16;101410.00;;;2.46;99.14
14253;BME280;7210;51.502;10.722;2023-02-04T08:07:43;101399.81;;;2.43;98.77
14253;BME280;7210;51.502;10.722;2023-02-04T08:10:11;101415.66;;;2.51;98.46
14253;BME280;7210;51.502;10.722;2023-02-04T08:12:38;101420.25;;;2.59;98.17
14253;BME280;7210;51.502;10.722;2023-02-04T08:15:06;101434.28;;;2.67;98.20
14253;BME280;7210;51.502;10.722;2023-02-04T08:17:34;101426.63;;;2.75;97.77
14253;BME280;7210;51.502;10.722;2023-02-04T08:20:02;101437.66;;;2.88;97.61
14253;BME280;7210;51.502;10.722;2023-02-04T08:22:30;101434.97;;;2.99;97.21
14253;BME280;7210;51.502;10.722;2023-02-04T08:25:04;101420.22;;;2.98;96.72
14253;BME280;7210;51.502;10.722;2023-02-04T08:27:31;101429.06;;;3.07;96.61
14253;BME280;7210;51.502;10.722;2023-02-04T08:29:59;101441.47;;;3.14;96.58
14253;BME280;7210;51.502;10.722;2023-02-04T08:32:26;101443.81;;;3.17;96.42
14253;BME280;7210;51.502;10.722;2023-02-04T08:34:54;101450.41;;;3.21;96.16
14253;BME280;7210;51.502;10.722;2023-02-04T08:37:21;101466.81;;;3.33;96.11
14253;BME280;7210;51.502;10.722;2023-02-04T08:39:50;101476.75;;;3.48;95.87
14253;BME280;7210;51.502;10.722;2023-02-04T08:42:29;101453.78;;;3.52;94.70
14253;BME280;7210;51.502;10.722;2023-02-04T08:44:56;101431.47;;;3.57;93.85
14253;BME280;7210;51.502;10.722;2023-02-04T08:47:23;101421.88;;;3.58;93.68
14253;BME280;7210;51.502;10.722;2023-02-04T08:49:50;101391.84;;;3.52;92.99
14253;BME280;7210;51.502;10.722;2023-02-04T08:52:18;101393.53;;;3.53;92.63
14253;BME280;7210;51.502;10.722;2023-02-04T08:54:45;101376.00;;;3.44;91.76
14253;BME280;7210;51.502;10.722;2023-02-04T08:57:14;101354.72;;;3.39;91.33
14253;BME280;7210;51.502;10.722;2023-02-04T08:59:41;101350.03;;;3.33;91.05
14253;BME280;7210;51.502;10.722;2023-02-04T09:02:10;101346.84;;;3.30;90.97
14253;BME280;7210;51.502;10.722;2023-02-04T09:04:40;101444.97;;;3.81;92.07
14253;BME280;7210;51.502;10.722;2023-02-04T09:07:07;101513.00;;;4.28;92.75
14253;BME280;7210;51.502;10.722;2023-02-04T09:09:34;101510.50;;;4.46;92.20
14253;BME280;7210;51.502;10.722;2023-02-04T09:12:01;101451.28;;;4.26;91.00
14253;BME280;7210;51.502;10.722;2023-02-04T09:14:35;101408.31;;;4.09;90.20
14253;BME280;7210;51.502;10.722;2023-02-04T09:17:02;101390.72;;;4.02;90.15
14253;BME280;7210;51.502;10.722;2023-02-04T09:19:30;101386.88;;;3.96;89.71
14253;BME280;7210;51.502;10.722;2023-02-04T09:21:57;101387.31;;;3.92;89.78
14253;BME280;7210;51.502;10.722;2023-02-04T09:24:24;101413.28;;;4.03;89.89
14253;BME280;7210;51.502;10.722;2023-02-04T09:26:52;101413.72;;;4.08;89.81
14253;BME280;7210;51.502;10.722;2023-02-04T09:29:21;101427.59;;;4.18;89.95
14253;BME280;7210;51.502;10.722;2023-02-04T09:31:50;101437.63;;;4.32;89.79
14253;BME280;7210;51.502;10.722;2023-02-04T09:34:17;101436.78;;;4.41;89.21
14253;BME280;7210;51.502;10.722;2023-02-04T09:36:44;101414.72;;;4.43;88.23
14253;BME280;7210;51.502;10.722;2023-02-04T09:39:11;101401.22;;;4.48;88.25
14253;BME280;7210;51.502;10.722;2023-02-04T09:41:39;101406.81;;;4.53;88.15
14253;BME280;7210;51.502;10.722;2023-02-04T09:44:13;101443.19;;;4.65;87.98
14253;BME280;7210;51.502;10.722;2023-02-04T09:46:48;101438.19;;;4.72;87.86
14253;BME280;7210;51.502;10.722;2023-02-04T09:49:18;101417.81;;;4.66;87.62
14253;BME280;7210;51.502;10.722;2023-02-04T09:51:46;101401.66;;;4.70;87.03
14253;BME280;7210;51.502;10.722;2023-02-04T09:54:17;101387.78;;;4.60;87.13
14253;BME280;7210;51.502;10.722;2023-02-04T09:56:45;101405.97;;;4.62;86.72
14253;BME280;7210;51.502;10.722;2023-02-04T09:59:16;101383.94;;;4.55;86.37
14253;BME280;7210;51.502;10.722;2023-02-04T10:01:50;101395.66;;;4.51;86.71
14253;BME280;7210;51.502;10.722;2023-02-04T10:04:23;101396.66;;;4.40;86.93
14253;BME280;7210;51.502;10.722;2023-02-04T10:06:50;101398.94;;;4.26;86.93
14253;BME280;7210;51.502;10.722;2023-02-04T10:09:18;101420.44;;;4.20;87.40
14253;BME280;7210;51.502;10.722;2023-02-04T10:11:48;101430.91;;;4.20;87.71
14253;BME280;7210;51.502;10.722;2023-02-04T10:14:21;101434.06;;;4.14;87.76
14253;BME280;7210;51.502;10.722;2023-02-04T10:16:54;101462.59;;;4.17;87.84
14253;BME280;7210;51.502;10.722;2023-02-04T10:19:24;101443.84;;;4.12;87.62
14253;BME280;7210;51.502;10.722;2023-02-04T10:21:53;101436.56;;;4.06;87.65
14253;BME280;7210;51.502;10.722;2023-02-04T10:24:24;101442.50;;;3.98;87.93
14253;BME280;7210;51.502;10.722;2023-02-04T10:26:54;101444.97;;;4.09;87.55
14253;BME280;7210;51.502;10.722;2023-02-04T10:29:32;101442.50;;;4.08;87.19
14253;BME280;7210;51.502;10.722;2023-02-04T10:31:59;101432.03;;;4.08;87.01
14253;BME280;7210;51.502;10.722;2023-02-04T10:34:36;101446.59;;;4.20;86.53
14253;BME280;7210;51.502;10.722;2023-02-04T10:37:18;101465.16;;;4.36;86.97
14253;BME280;7210;51.502;10.722;2023-02-04T10:39:48;101497.81;;;4.51;87.20
14253;BME280;7210;51.502;10.722;2023-02-04T10:42:21;101501.09;;;4.62;86.77
14253;BME280;7210;51.502;10.722;2023-02-04T10:44:49;101497.47;;;4.82;86.37
14253;BME280;7210;51.502;10.722;2023-02-04T10:47:22;101531.72;;;5.08;86.28
14253;BME280;7210;51.502;10.722;2023-02-04T10:49:58;101542.25;;;5.25;86.11
14253;BME280;7210;51.502;10.722;2023-02-04T10:52:35;101493.66;;;5.31;84.83
14253;BME280;7210;51.502;10.722;2023-02-04T10:55:09;101448.78;;;5.34;84.24
14253;BME280;7210;51.502;10.722;2023-02-04T10:57:40;101435.97;;;5.48;83.36
14253;BME280;7210;51.502;10.722;2023-02-04T11:00:17;101413.22;;;5.49;82.94
14253;BME280;7210;51.502;10.722;2023-02-04T11:02:57;101444.00;;;5.64;83.18
14253;BME280;7210;51.502;10.722;2023-02-04T11:05:37;101435.63;;;5.78;82.62
14253;BME280;7210;51.502;10.722;2023-02-04T11:08:21;101419.69;;;5.89;82.04
14253;BME280;7210;51.502;10.722;2023-02-04T11:10:55;101382.19;;;5.79;81.52
14253;BME280;7210;51.502;10.722;2023-02-04T11:13:26;101368.81;;;5.73;80.56
14253;BME280;7210;51.502;10.722;2023-02-04T11:16:23;101328.09;;;5.69;80.05
14253;BME280;7210;51.502;10.722;2023-02-04T11:18:53;101281.28;;;5.56;79.27
14253;BME280;7210;51.502;10.722;2023-02-04T11:21:27;101360.72;;;5.84;80.03
14253;BME280;7210;51.502;10.722;2023-02-04T11:24:21;101381.19;;;5.98;79.57
14253;BME280;7210;51.502;10.722;2023-02-04T11:27:06;101357.56;;;5.98;79.28
14253;BME280;7210;51.502;10.722;2023-02-04T11:29:36;101296.50;;;5.96;77.99
14253;BME280;7210;51.502;10.722;2023-02-04T11:32:06;101249.88;;;5.90;77.48
14253;BME280;7210;51.502;10.722;2023-02-04T11:34:52;101299.03;;;6.05;77.36
14253;BME280;7210;51.502;10.722;2023-02-04T11:37:36;101338.00;;;6.18;77.84
14253;BME280;7210;51.502;10.722;2023-02-04T11:40:26;101311.75;;;6.18;77.19
14253;BME280;7210;51.502;10.722;2023-02-04T11:43:01;101264.78;;;6.15;76.38
14253;BME280;7210;51.502;10.722;2023-02-04T11:45:32;101309.16;;;6.26;76.84
14253;BME280;7210;51.502;10.722;2023-02-04T11:48:03;101294.69;;;6.22;76.76
14253;BME280;7210;51.502;10.722;2023-02-04T11:50:35;101192.53;;;6.03;74.92
14253;BME280;7210;51.502;10.722;2023-02-04T11:53:04;101144.28;;;5.96;74.77
14253;BME280;7210;51.502;10.722;2023-02-04T11:55:41;101187.22;;;5.87;75.41
14253;BME280;7210;51.502;10.722;2023-02-04T11:58:15;101170.13;;;5.83;75.51
14253;BME280;7210;51.502;10.722;2023-02-04T12:00:43;101119.88;;;5.70;74.35
14253;BME280;7210;51.502;10.722;2023-02-04T12:03:23;101072.53;;;5.46;74.35
14253;BME280;7210;51.502;10.722;2023-02-04T12:05:51;101086.81;;;5.43;74.60
14253;BME280;7210;51.502;10.722;2023-02-04T12:08:32;101067.63;;;5.43;73.62
14253;BME280;7210;51.502;10.722;2023-02-04T12:11:09;101046.72;;;5.25;73.90
14253;BME280;7210;51.502;10.722;2023-02-04T12:13:47;101145.25;;;5.36;74.70
14253;BME280;7210;51.502;10.722;2023-02-04T12:16:15;101246.47;;;5.46;75.59
14253;BME280;7210;51.502;10.722;2023-02-04T12:18:43;101283.38;;;5.53;76.03
14253;BME280;7210;51.502;10.722;2023-02-04T12:21:11;101353.81;;;5.65;76.52
14253;BME280;7210;51.502;10.722;2023-02-04T12:23:43;101306.44;;;5.67;76.06
14253;BME280;7210;51.502;10.722;2023-02-04T12:26:11;101250.88;;;5.71;75.21
14253;BME280;7210;51.502;10.722;2023-02-04T12:28:38;101292.81;;;5.81;75.69
14253;BME280;7210;51.502;10.722;2023-02-04T12:31:05;101314.84;;;5.88;75.67
14253;BME280;7210;51.502;10.722;2023-02-04T12:33:32;101315.88;;;5.95;75.71
14253;BME280;7210;51.502;10.722;2023-02-04T12:35:59;101342.50;;;6.08;75.42
14253;BME280;7210;51.502;10.722;2023-02-04T12:38:27;101314.00;;;6.13;74.88
14253;BME280;7210;51.502;10.722;2023-02-04T12:40:55;101293.00;;;6.13;74.97
14253;BME280;7210;51.502;10.722;2023-02-04T12:43:22;101278.88;;;6.14;74.39
14253;BME280;7210;51.502;10.722;2023-02-04T12:45:50;101276.25;;;6.14;74.40
14253;BME280;7210;51.502;10.722;2023-02-04T12:48:21;101285.50;;;6.18;74.71
14253;BME280;7210;51.502;10.722;2023-02-04T12:50:50;101284.13;;;6.14;74.79
14253;BME280;7210;51.502;10.722;2023-02-04T12:53:17;101282.63;;;6.11;74.20
14253;BME280;7210;51.502;10.722;2023-02-04T12:55:45;101249.50;;;6.10;73.61
14253;BME280;7210;51.502;10.722;2023-02-04T12:58:13;101227.69;;;6.10;73.55
14253;BME280;7210;51.502;10.722;2023-02-04T13:00:41;101218.78;;;6.03;73.85
14253;BME280;7210;51.502;10.722;2023-02-04T13:03:08;101175.78;;;5.96;72.85
14253;BME280;7210;51.502;10.722;2023-02-04T13:05:35;101141.91;;;5.85;72.87
14253;BME280;7210;51.502;10.722;2023-02-04T13:08:03;101099.22;;;5.75;72.42
14253;BME280;7210;51.502;10.722;2023-02-04T13:10:30;101071.16;;;5.67;71.95